sensor_id;sensor_type;location;lat;lon;timestamp;P1;durP1;ratioP1;P2;durP2;ratioP2
37495;SDS011;23346;52.088;4.746;2022-08-19T00:01:09;50.90;;;22.92;;
37495;SDS011;23346;52.088;4.746;2022-08-19T00:03:37;54.47;;;25.03;;
37495;SDS011;23346;52.088;4.746;2022-08-19T00:06:03;50.93;;;23.40;;
37495;SDS011;23346;52.088;4.746;2022-08-19T00:08:29;56.35;;;23.30;;
37495;SDS011;23346;52.088;4.746;2022-08-19T00:10:56;52.70;;;23.02;;
37495;SDS011;23346;52.088;4.746;2022-08-19T00:13:22;55.45;;;22.45;;
37495;SDS011;23346;52.088;4.746;2022-08-19T00:15:48;52.08;;;23.33;;
37495;SDS011;23346;52.088;4.746;2022-08-19T00:18:14;62.05;;;25.67;;
37495;SDS011;23346;52.088;4.746;2022-08-19T00:20:40;55.08;;;24.10;;
37495;SDS011;23346;52.088;4.746;2022-08-19T00:23:06;54.88;;;24.55;;
37495;SDS011;23346;52.088;4.746;2022-08-19T00:25:32;62.90;;;24.58;;
37495;SDS011;23346;52.088;4.746;2022-08-19T00:27:58;54.53;;;23.42;;
37495;SDS011;23346;52.088;4.746;2022-08-19T00:30:25;59.47;;;25.48;;
37495;SDS011;23346;52.088;4.746;2022-08-19T00:32:52;60.10;;;24.95;;
37495;SDS011;23346;52.088;4.746;2022-08-19T00:35:20;67.07;;;26.92;;
37495;SDS011;23346;52.088;4.746;2022-08-19T00:37:47;69.22;;;27.13;;
37495;SDS011;23346;52.088;4.746;2022-08-19T00:40:14;67.50;;;26.83;;
37495;SDS011;23346;52.088;4.746;2022-08-19T00:42:40;70.25;;;27.67;;
37495;SDS011;23346;52.088;4.746;2022-08-19T00:45:14;67.40;;;27.35;;
37495;SDS011;23346;52.088;4.746;2022-08-19T00:47:41;79.25;;;28.80;;
37495;SDS011;23346;52.088;4.746;2022-08-19T00:50:08;76.47;;;27.98;;
37495;SDS011;23346;52.088;4.746;2022-08-19T00:52:34;75.93;;;29.27;;
37495;SDS011;23346;52.088;4.746;2022-08-19T00:55:01;77.30;;;30.30;;
37495;SDS011;23346;52.088;4.746;2022-08-19T00:57:29;79.70;;;30.20;;
37495;SDS011;23346;52.088;4.746;2022-08-19T00:59:56;81.20;;;29.42;;
37495;SDS011;23346;52.088;4.746;2022-08-19T01:02:24;82.88;;;30.90;;
37495;SDS011;23346;52.088;4.746;2022-08-19T01:04:50;81.95;;;31.40;;
37495;SDS011;23346;52.088;4.746;2022-08-19T01:07:16;84.70;;;32.38;;
37495;SDS011;23346;52.088;4.746;2022-08-19T01:09:43;77.97;;;28.92;;
37495;SDS011;23346;52.088;4.746;2022-08-19T01:12:11;86.40;;;30.83;;
37495;SDS011;23346;52.088;4.746;2022-08-19T01:14:37;92.20;;;30.77;;
37495;SDS011;23346;52.088;4.746;2022-08-19T01:17:04;80.03;;;28.90;;
37495;SDS011;23346;52.088;4.746;2022-08-19T01:19:35;79.70;;;29.17;;
37495;SDS011;23346;52.088;4.746;2022-08-19T01:22:03;87.13;;;30.07;;
37495;SDS011;23346;52.088;4.746;2022-08-19T01:24:31;96.57;;;31.20;;
37495;SDS011;23346;52.088;4.746;2022-08-19T01:26:57;84.57;;;29.60;;
37495;SDS011;23346;52.088;4.746;2022-08-19T01:29:23;86.67;;;31.50;;
37495;SDS011;23346;52.088;4.746;2022-08-19T01:31:49;87.60;;;34.30;;
37495;SDS011;23346;52.088;4.746;2022-08-19T01:34:17;100.95;;;34.42;;
37495;SDS011;23346;52.088;4.746;2022-08-19T01:36:44;95.65;;;36.50;;
37495;SDS011;23346;52.088;4.746;2022-08-19T01:39:18;101.75;;;37.35;;
37495;SDS011;23346;52.088;4.746;2022-08-19T01:41:45;106.00;;;36.00;;
37495;SDS011;23346;52.088;4.746;2022-08-19T01:44:11;107.67;;;38.03;;
37495;SDS011;23346;52.088;4.746;2022-08-19T01:46:37;109.70;;;38.10;;
37495;SDS011;23346;52.088;4.746;2022-08-19T01:49:05;118.53;;;37.13;;
37495;SDS011;23346;52.088;4.746;2022-08-19T01:51:32;117.93;;;38.07;;
37495;SDS011;23346;52.088;4.746;2022-08-19T01:53:58;118.40;;;39.17;;
37495;SDS011;23346;52.088;4.746;2022-08-19T01:56:24;121.33;;;39.73;;
37495;SDS011;23346;52.088;4.746;2022-08-19T01:58:55;124.47;;;40.03;;
37495;SDS011;23346;52.088;4.746;2022-08-19T02:01:22;140.00;;;41.77;;
37495;SDS011;23346;52.088;4.746;2022-08-19T02:03:48;146.25;;;42.00;;
37495;SDS011;23346;52.088;4.746;2022-08-19T02:06:15;143.20;;;43.67;;
37495;SDS011;23346;52.088;4.746;2022-08-19T02:08:42;133.40;;;42.13;;
37495;SDS011;23346;52.088;4.746;2022-08-19T02:11:17;140.57;;;43.03;;
37495;SDS011;23346;52.088;4.746;2022-08-19T02:13:43;131.00;;;42.15;;
37495;SDS011;23346;52.088;4.746;2022-08-19T02:16:09;124.77;;;39.73;;
37495;SDS011;23346;52.088;4.746;2022-08-19T02:18:35;135.93;;;41.63;;
37495;SDS011;23346;52.088;4.746;2022-08-19T02:21:01;146.13;;;41.75;;
37495;SDS011;23346;52.088;4.746;2022-08-19T02:23:27;134.33;;;42.27;;
37495;SDS011;23346;52.088;4.746;2022-08-19T02:25:53;145.77;;;44.67;;
37495;SDS011;23346;52.088;4.746;2022-08-19T02:28:19;143.63;;;44.00;;
37495;SDS011;23346;52.088;4.746;2022-08-19T02:30:46;143.67;;;42.40;;
37495;SDS011;23346;52.088;4.746;2022-08-19T02:33:12;146.33;;;43.73;;
37495;SDS011;23346;52.088;4.746;2022-08-19T02:35:42;154.87;;;45.23;;
37495;SDS011;23346;52.088;4.746;2022-08-19T02:38:09;140.70;;;44.27;;
37495;SDS011;23346;52.088;4.746;2022-08-19T02:40:54;147.23;;;43.80;;
37495;SDS011;23346;52.088;4.746;2022-08-19T02:43:20;144.10;;;45.53;;
37495;SDS011;23346;52.088;4.746;2022-08-19T02:45:47;143.43;;;46.20;;
37495;SDS011;23346;52.088;4.746;2022-08-19T02:48:14;176.37;;;48.87;;
37495;SDS011;23346;52.088;4.746;2022-08-19T02:50:42;145.88;;;46.70;;
37495;SDS011;23346;52.088;4.746;2022-08-19T02:53:08;162.33;;;50.27;;
37495;SDS011;23346;52.088;4.746;2022-08-19T02:55:35;155.90;;;47.72;;
37495;SDS011;23346;52.088;4.746;2022-08-19T02:58:01;161.02;;;49.10;;
37495;SDS011;23346;52.088;4.746;2022-08-19T03:00:27;173.05;;;50.25;;
37495;SDS011;23346;52.088;4.746;2022-08-19T03:02:53;180.87;;;50.83;;
37495;SDS011;23346;52.088;4.746;2022-08-19T03:05:22;180.57;;;51.80;;
37495;SDS011;23346;52.088;4.746;2022-08-19T03:07:48;179.95;;;53.30;;
37495;SDS011;23346;52.088;4.746;2022-08-19T03:10:14;165.87;;;48.50;;
37495;SDS011;23346;52.088;4.746;2022-08-19T03:12:40;158.07;;;48.85;;
37495;SDS011;23346;52.088;4.746;2022-08-19T03:15:06;171.20;;;48.97;;
37495;SDS011;23346;52.088;4.746;2022-08-19T03:17:33;172.07;;;49.33;;
37495;SDS011;23346;52.088;4.746;2022-08-19T03:19:59;187.63;;;52.57;;
37495;SDS011;23346;52.088;4.746;2022-08-19T03:22:26;154.23;;;50.83;;
37495;SDS011;23346;52.088;4.746;2022-08-19T03:24:52;160.23;;;50.37;;
37495;SDS011;23346;52.088;4.746;2022-08-19T03:27:18;190.37;;;53.63;;
37495;SDS011;23346;52.088;4.746;2022-08-19T03:29:44;188.10;;;55.60;;
37495;SDS011;23346;52.088;4.746;2022-08-19T03:32:10;199.93;;;56.40;;
37495;SDS011;23346;52.088;4.746;2022-08-19T03:34:37;188.40;;;52.40;;
37495;SDS011;23346;52.088;4.746;2022-08-19T03:37:05;206.90;;;57.10;;
37495;SDS011;23346;52.088;4.746;2022-08-19T03:39:31;202.30;;;59.00;;
37495;SDS011;23346;52.088;4.746;2022-08-19T03:41:58;206.73;;;58.50;;
37495;SDS011;23346;52.088;4.746;2022-08-19T03:44:27;229.73;;;62.07;;
37495;SDS011;23346;52.088;4.746;2022-08-19T03:46:55;267.50;;;64.17;;
37495;SDS011;23346;52.088;4.746;2022-08-19T03:49:22;254.43;;;64.50;;
37495;SDS011;23346;52.088;4.746;2022-08-19T03:51:49;279.80;;;69.87;;
37495;SDS011;23346;52.088;4.746;2022-08-19T03:54:17;298.60;;;73.22;;
37495;SDS011;23346;52.088;4.746;2022-08-19T03:56:44;296.27;;;72.13;;
37495;SDS011;23346;52.088;4.746;2022-08-19T03:59:12;318.47;;;75.13;;
37495;SDS011;23346;52.088;4.746;2022-08-19T04:01:38;272.73;;;73.10;;
37495;SDS011;23346;52.088;4.746;2022-08-19T04:04:04;316.77;;;79.73;;
37495;SDS011;23346;52.088;4.746;2022-08-19T04:06:32;314.43;;;78.70;;
37495;SDS011;23346;52.088;4.746;2022-08-19T04:08:59;327.20;;;81.23;;
37495;SDS011;23346;52.088;4.746;2022-08-19T04:11:46;314.00;;;81.63;;
37495;SDS011;23346;52.088;4.746;2022-08-19T04:14:13;359.37;;;87.13;;
37495;SDS011;23346;52.088;4.746;2022-08-19T04:16:40;348.35;;;84.05;;
37495;SDS011;23346;52.088;4.746;2022-08-19T04:19:08;364.97;;;91.57;;
37495;SDS011;23346;52.088;4.746;2022-08-19T04:21:34;380.37;;;91.60;;
37495;SDS011;23346;52.088;4.746;2022-08-19T04:24:01;367.13;;;91.43;;
37495;SDS011;23346;52.088;4.746;2022-08-19T04:26:28;367.33;;;91.13;;
37495;SDS011;23346;52.088;4.746;2022-08-19T04:28:56;371.92;;;87.68;;
37495;SDS011;23346;52.088;4.746;2022-08-19T04:31:24;357.08;;;91.25;;
37495;SDS011;23346;52.088;4.746;2022-08-19T04:33:54;378.80;;;92.40;;
37495;SDS011;23346;52.088;4.746;2022-08-19T04:36:22;361.60;;;91.32;;
37495;SDS011;23346;52.088;4.746;2022-08-19T04:38:49;353.70;;;88.82;;
37495;SDS011;23346;52.088;4.746;2022-08-19T04:41:15;366.25;;;90.05;;
37495;SDS011;23346;52.088;4.746;2022-08-19T04:44:00;374.08;;;90.07;;
37495;SDS011;23346;52.088;4.746;2022-08-19T04:46:27;357.60;;;83.90;;
37495;SDS011;23346;52.088;4.746;2022-08-19T04:48:55;349.02;;;84.97;;
37495;SDS011;23346;52.088;4.746;2022-08-19T04:51:22;345.52;;;82.40;;
37495;SDS011;23346;52.088;4.746;2022-08-19T04:53:48;372.98;;;85.05;;
37495;SDS011;23346;52.088;4.746;2022-08-19T04:56:14;372.20;;;84.03;;
37495;SDS011;23346;52.088;4.746;2022-08-19T04:58:42;343.08;;;83.47;;
37495;SDS011;23346;52.088;4.746;2022-08-19T05:01:12;370.58;;;85.20;;
37495;SDS011;23346;52.088;4.746;2022-08-19T05:03:38;362.15;;;87.95;;
37495;SDS011;23346;52.088;4.746;2022-08-19T05:06:09;397.05;;;87.28;;
37495;SDS011;23346;52.088;4.746;2022-08-19T05:08:36;386.70;;;85.65;;
37495;SDS011;23346;52.088;4.746;2022-08-19T05:11:10;379.92;;;87.93;;
37495;SDS011;23346;52.088;4.746;2022-08-19T05:13:36;392.17;;;87.25;;
37495;SDS011;23346;52.088;4.746;2022-08-19T05:16:03;403.17;;;86.90;;
37495;SDS011;23346;52.088;4.746;2022-08-19T05:18:29;404.08;;;83.35;;
37495;SDS011;23346;52.088;4.746;2022-08-19T05:21:14;380.75;;;84.35;;
37495;SDS011;23346;52.088;4.746;2022-08-19T05:23:59;410.92;;;88.80;;
37495;SDS011;23346;52.088;4.746;2022-08-19T05:26:26;407.80;;;86.22;;
37495;SDS011;23346;52.088;4.746;2022-08-19T05:28:52;379.15;;;85.68;;
37495;SDS011;23346;52.088;4.746;2022-08-19T05:31:19;394.33;;;89.28;;
37495;SDS011;23346;52.088;4.746;2022-08-19T05:33:45;374.65;;;87.70;;
37495;SDS011;23346;52.088;4.746;2022-08-19T05:36:11;383.25;;;87.25;;
37495;SDS011;23346;52.088;4.746;2022-08-19T05:38:38;417.15;;;90.40;;
37495;SDS011;23346;52.088;4.746;2022-08-19T05:41:08;392.50;;;86.63;;
37495;SDS011;23346;52.088;4.746;2022-08-19T05:43:35;410.95;;;93.70;;
37495;SDS011;23346;52.088;4.746;2022-08-19T05:46:01;418.38;;;90.28;;
37495;SDS011;23346;52.088;4.746;2022-08-19T05:48:27;386.02;;;90.60;;
37495;SDS011;23346;52.088;4.746;2022-08-19T05:50:54;394.70;;;88.13;;
37495;SDS011;23346;52.088;4.746;2022-08-19T05:53:20;410.75;;;87.32;;
37495;SDS011;23346;52.088;4.746;2022-08-19T05:55:46;381.70;;;81.53;;
37495;SDS011;23346;52.088;4.746;2022-08-19T05:58:12;362.52;;;78.72;;
37495;SDS011;23346;52.088;4.746;2022-08-19T06:00:38;370.33;;;82.05;;
37495;SDS011;23346;52.088;4.746;2022-08-19T06:03:05;361.70;;;79.85;;
37495;SDS011;23346;52.088;4.746;2022-08-19T06:05:31;366.42;;;81.07;;
37495;SDS011;23346;52.088;4.746;2022-08-19T06:07:58;334.80;;;77.47;;
37495;SDS011;23346;52.088;4.746;2022-08-19T06:10:24;365.73;;;79.43;;
37495;SDS011;23346;52.088;4.746;2022-08-19T06:12:51;347.67;;;80.57;;
37495;SDS011;23346;52.088;4.746;2022-08-19T06:15:17;320.73;;;74.28;;
37495;SDS011;23346;52.088;4.746;2022-08-19T06:17:43;350.58;;;81.65;;
37495;SDS011;23346;52.088;4.746;2022-08-19T06:20:10;335.55;;;79.05;;
37495;SDS011;23346;52.088;4.746;2022-08-19T06:22:38;331.27;;;79.35;;
37495;SDS011;23346;52.088;4.746;2022-08-19T06:25:05;324.02;;;75.88;;
37495;SDS011;23346;52.088;4.746;2022-08-19T06:27:31;340.70;;;81.53;;
37495;SDS011;23346;52.088;4.746;2022-08-19T06:29:58;338.52;;;79.28;;
37495;SDS011;23346;52.088;4.746;2022-08-19T06:32:24;337.17;;;81.75;;
37495;SDS011;23346;52.088;4.746;2022-08-19T06:34:50;324.35;;;79.90;;
37495;SDS011;23346;52.088;4.746;2022-08-19T06:37:16;299.73;;;77.72;;
37495;SDS011;23346;52.088;4.746;2022-08-19T06:39:42;323.50;;;77.00;;
37495;SDS011;23346;52.088;4.746;2022-08-19T06:42:09;294.75;;;75.78;;
37495;SDS011;23346;52.088;4.746;2022-08-19T06:44:39;300.00;;;76.22;;
37495;SDS011;23346;52.088;4.746;2022-08-19T06:47:07;291.38;;;76.18;;
37495;SDS011;23346;52.088;4.746;2022-08-19T06:49:33;298.40;;;77.70;;
37495;SDS011;23346;52.088;4.746;2022-08-19T06:52:00;295.25;;;78.25;;
37495;SDS011;23346;52.088;4.746;2022-08-19T06:54:26;280.48;;;78.72;;
37495;SDS011;23346;52.088;4.746;2022-08-19T06:56:59;272.85;;;73.63;;
37495;SDS011;23346;52.088;4.746;2022-08-19T06:59:29;261.73;;;71.82;;
37495;SDS011;23346;52.088;4.746;2022-08-19T07:01:56;266.63;;;75.78;;
37495;SDS011;23346;52.088;4.746;2022-08-19T07:04:24;245.60;;;73.38;;
37495;SDS011;23346;52.088;4.746;2022-08-19T07:06:58;232.80;;;70.28;;
37495;SDS011;23346;52.088;4.746;2022-08-19T07:09:25;255.30;;;74.38;;
37495;SDS011;23346;52.088;4.746;2022-08-19T07:11:52;230.38;;;74.40;;
37495;SDS011;23346;52.088;4.746;2022-08-19T07:14:20;221.95;;;71.97;;
37495;SDS011;23346;52.088;4.746;2022-08-19T07:16:47;200.57;;;70.45;;
37495;SDS011;23346;52.088;4.746;2022-08-19T07:19:14;181.32;;;66.95;;
37495;SDS011;23346;52.088;4.746;2022-08-19T07:21:40;161.43;;;62.53;;
37495;SDS011;23346;52.088;4.746;2022-08-19T07:24:07;134.10;;;54.75;;
37495;SDS011;23346;52.088;4.746;2022-08-19T07:26:33;105.68;;;50.10;;
37495;SDS011;23346;52.088;4.746;2022-08-19T07:29:03;77.43;;;40.90;;
37495;SDS011;23346;52.088;4.746;2022-08-19T07:31:30;71.68;;;38.22;;
37495;SDS011;23346;52.088;4.746;2022-08-19T07:34:01;60.75;;;34.90;;
37495;SDS011;23346;52.088;4.746;2022-08-19T07:36:28;60.05;;;33.15;;
37495;SDS011;23346;52.088;4.746;2022-08-19T07:38:57;53.65;;;30.55;;
37495;SDS011;23346;52.088;4.746;2022-08-19T07:41:24;47.72;;;27.60;;
37495;SDS011;23346;52.088;4.746;2022-08-19T07:43:51;49.28;;;30.77;;
37495;SDS011;23346;52.088;4.746;2022-08-19T07:46:17;51.70;;;28.25;;
37495;SDS011;23346;52.088;4.746;2022-08-19T07:48:45;44.47;;;26.88;;
37495;SDS011;23346;52.088;4.746;2022-08-19T07:51:12;42.55;;;27.23;;
37495;SDS011;23346;52.088;4.746;2022-08-19T07:53:38;40.53;;;22.60;;
37495;SDS011;23346;52.088;4.746;2022-08-19T07:56:04;39.45;;;24.58;;
37495;SDS011;23346;52.088;4.746;2022-08-19T07:58:32;36.90;;;25.10;;
37495;SDS011;23346;52.088;4.746;2022-08-19T08:00:58;36.17;;;23.20;;
37495;SDS011;23346;52.088;4.746;2022-08-19T08:03:25;36.13;;;21.38;;
37495;SDS011;23346;52.088;4.746;2022-08-19T08:06:12;36.95;;;21.60;;
37495;SDS011;23346;52.088;4.746;2022-08-19T08:08:57;30.35;;;20.45;;
37495;SDS011;23346;52.088;4.746;2022-08-19T08:11:39;30.75;;;20.27;;
37495;SDS011;23346;52.088;4.746;2022-08-19T08:14:05;29.55;;;18.70;;
37495;SDS011;23346;52.088;4.746;2022-08-19T08:16:36;30.73;;;18.38;;
37495;SDS011;23346;52.088;4.746;2022-08-19T08:19:04;30.42;;;18.25;;
37495;SDS011;23346;52.088;4.746;2022-08-19T08:21:31;28.90;;;18.20;;
37495;SDS011;23346;52.088;4.746;2022-08-19T08:23:57;32.90;;;18.33;;
37495;SDS011;23346;52.088;4.746;2022-08-19T08:26:23;24.00;;;16.70;;
37495;SDS011;23346;52.088;4.746;2022-08-19T08:28:50;27.20;;;17.40;;
37495;SDS011;23346;52.088;4.746;2022-08-19T08:31:16;32.17;;;19.33;;
37495;SDS011;23346;52.088;4.746;2022-08-19T08:33:43;29.73;;;17.65;;
37495;SDS011;23346;52.088;4.746;2022-08-19T08:36:09;28.63;;;18.83;;
37495;SDS011;23346;52.088;4.746;2022-08-19T08:38:36;29.45;;;18.88;;
37495;SDS011;23346;52.088;4.746;2022-08-19T08:41:15;27.33;;;15.70;;
37495;SDS011;23346;52.088;4.746;2022-08-19T08:43:45;24.23;;;16.77;;
37495;SDS011;23346;52.088;4.746;2022-08-19T08:46:13;27.13;;;16.02;;
37495;SDS011;23346;52.088;4.746;2022-08-19T08:48:49;28.05;;;16.52;;
37495;SDS011;23346;52.088;4.746;2022-08-19T08:51:20;30.17;;;16.10;;
37495;SDS011;23346;52.088;4.746;2022-08-19T08:53:48;23.90;;;16.70;;
37495;SDS011;23346;52.088;4.746;2022-08-19T08:56:15;26.15;;;16.20;;
37495;SDS011;23346;52.088;4.746;2022-08-19T08:58:50;31.02;;;19.00;;
37495;SDS011;23346;52.088;4.746;2022-08-19T09:01:17;34.58;;;21.35;;
37495;SDS011;23346;52.088;4.746;2022-08-19T09:03:44;32.60;;;19.83;;
37495;SDS011;23346;52.088;4.746;2022-08-19T09:09:02;29.23;;;20.15;;
37495;SDS011;23346;52.088;4.746;2022-08-19T09:14:49;29.25;;;18.83;;
37495;SDS011;23346;52.088;4.746;2022-08-19T09:17:08;26.85;;;19.35;;
37495;SDS011;23346;52.088;4.746;2022-08-19T09:19:35;32.90;;;19.83;;
37495;SDS011;23346;52.088;4.746;2022-08-19T09:22:02;29.13;;;20.42;;
37495;SDS011;23346;52.088;4.746;2022-08-19T09:24:28;28.33;;;18.73;;
37495;SDS011;23346;52.088;4.746;2022-08-19T09:26:54;27.13;;;17.67;;
37495;SDS011;23346;52.088;4.746;2022-08-19T09:29:20;26.80;;;17.13;;
37495;SDS011;23346;52.088;4.746;2022-08-19T09:31:46;27.35;;;18.00;;
37495;SDS011;23346;52.088;4.746;2022-08-19T09:34:12;26.00;;;15.77;;
37495;SDS011;23346;52.088;4.746;2022-08-19T09:36:38;24.98;;;14.45;;
37495;SDS011;23346;52.088;4.746;2022-08-19T09:39:05;24.65;;;14.77;;
37495;SDS011;23346;52.088;4.746;2022-08-19T09:41:31;22.48;;;14.88;;
37495;SDS011;23346;52.088;4.746;2022-08-19T09:43:58;21.98;;;13.38;;
37495;SDS011;23346;52.088;4.746;2022-08-19T09:46:25;21.67;;;12.70;;
37495;SDS011;23346;52.088;4.746;2022-08-19T09:48:52;24.00;;;13.10;;
37495;SDS011;23346;52.088;4.746;2022-08-19T09:51:20;18.58;;;12.07;;
37495;SDS011;23346;52.088;4.746;2022-08-19T09:53:47;17.02;;;12.15;;
37495;SDS011;23346;52.088;4.746;2022-08-19T09:56:15;14.07;;;11.07;;
37495;SDS011;23346;52.088;4.746;2022-08-19T09:58:42;25.42;;;12.82;;
37495;SDS011;23346;52.088;4.746;2022-08-19T10:01:08;23.70;;;13.30;;
37495;SDS011;23346;52.088;4.746;2022-08-19T10:03:35;18.95;;;12.52;;
37495;SDS011;23346;52.088;4.746;2022-08-19T10:06:02;22.13;;;13.98;;
37495;SDS011;23346;52.088;4.746;2022-08-19T10:08:30;16.15;;;13.05;;
37495;SDS011;23346;52.088;4.746;2022-08-19T10:10:58;28.63;;;13.32;;
37495;SDS011;23346;52.088;4.746;2022-08-19T10:13:26;27.23;;;13.35;;
37495;SDS011;23346;52.088;4.746;2022-08-19T10:15:53;22.73;;;14.40;;
37495;SDS011;23346;52.088;4.746;2022-08-19T10:18:20;15.75;;;11.18;;
37495;SDS011;23346;52.088;4.746;2022-08-19T10:20:47;19.88;;;12.70;;
37495;SDS011;23346;52.088;4.746;2022-08-19T10:23:14;18.23;;;10.57;;
37495;SDS011;23346;52.088;4.746;2022-08-19T10:25:40;22.80;;;11.27;;
37495;SDS011;23346;52.088;4.746;2022-08-19T10:28:06;20.45;;;9.73;;
37495;SDS011;23346;52.088;4.746;2022-08-19T10:30:33;13.73;;;8.93;;
37495;SDS011;23346;52.088;4.746;2022-08-19T10:32:59;22.08;;;11.10;;
37495;SDS011;23346;52.088;4.746;2022-08-19T10:35:25;20.17;;;12.70;;
37495;SDS011;23346;52.088;4.746;2022-08-19T10:37:53;18.48;;;10.65;;
37495;SDS011;23346;52.088;4.746;2022-08-19T10:40:19;25.00;;;13.35;;
37495;SDS011;23346;52.088;4.746;2022-08-19T10:42:45;22.23;;;12.77;;
37495;SDS011;23346;52.088;4.746;2022-08-19T10:45:11;24.23;;;13.60;;
37495;SDS011;23346;52.088;4.746;2022-08-19T10:47:37;20.35;;;13.82;;
37495;SDS011;23346;52.088;4.746;2022-08-19T10:50:03;24.08;;;13.60;;
37495;SDS011;23346;52.088;4.746;2022-08-19T10:52:49;18.48;;;11.50;;
37495;SDS011;23346;52.088;4.746;2022-08-19T10:55:15;15.55;;;11.48;;
37495;SDS011;23346;52.088;4.746;2022-08-19T10:58:15;20.35;;;10.32;;
37495;SDS011;23346;52.088;4.746;2022-08-19T11:00:42;16.40;;;8.93;;
37495;SDS011;23346;52.088;4.746;2022-08-19T11:03:08;15.20;;;7.88;;
37495;SDS011;23346;52.088;4.746;2022-08-19T11:05:34;11.93;;;7.07;;
37495;SDS011;23346;52.088;4.746;2022-08-19T11:08:02;14.52;;;6.47;;
37495;SDS011;23346;52.088;4.746;2022-08-19T11:10:28;11.20;;;6.22;;
37495;SDS011;23346;52.088;4.746;2022-08-19T11:12:54;12.32;;;5.07;;
37495;SDS011;23346;52.088;4.746;2022-08-19T11:15:20;10.98;;;4.97;;
37495;SDS011;23346;52.088;4.746;2022-08-19T11:17:47;10.70;;;5.00;;
37495;SDS011;23346;52.088;4.746;2022-08-19T11:20:14;8.60;;;4.32;;
37495;SDS011;23346;52.088;4.746;2022-08-19T11:22:40;9.00;;;3.88;;
37495;SDS011;23346;52.088;4.746;2022-08-19T11:25:07;9.40;;;5.18;;
37495;SDS011;23346;52.088;4.746;2022-08-19T11:27:33;14.68;;;4.32;;
37495;SDS011;23346;52.088;4.746;2022-08-19T11:30:02;5.85;;;4.32;;
37495;SDS011;23346;52.088;4.746;2022-08-19T11:32:29;8.82;;;4.55;;
37495;SDS011;23346;52.088;4.746;2022-08-19T11:34:55;11.57;;;4.25;;
37495;SDS011;23346;52.088;4.746;2022-08-19T11:37:21;7.20;;;4.35;;
37495;SDS011;23346;52.088;4.746;2022-08-19T11:39:47;10.77;;;4.03;;
37495;SDS011;23346;52.088;4.746;2022-08-19T11:42:13;5.65;;;4.05;;
37495;SDS011;23346;52.088;4.746;2022-08-19T11:44:57;7.55;;;3.63;;
37495;SDS011;23346;52.088;4.746;2022-08-19T11:47:23;8.82;;;2.78;;
37495;SDS011;23346;52.088;4.746;2022-08-19T11:49:50;8.75;;;3.00;;
37495;SDS011;23346;52.088;4.746;2022-08-19T11:52:16;8.35;;;2.55;;
37495;SDS011;23346;52.088;4.746;2022-08-19T11:54:42;6.82;;;2.53;;
37495;SDS011;23346;52.088;4.746;2022-08-19T11:57:08;5.00;;;2.53;;
37495;SDS011;23346;52.088;4.746;2022-08-19T11:59:34;9.40;;;2.92;;
37495;SDS011;23346;52.088;4.746;2022-08-19T12:02:00;4.03;;;2.25;;
37495;SDS011;23346;52.088;4.746;2022-08-19T12:04:26;4.97;;;2.20;;
37495;SDS011;23346;52.088;4.746;2022-08-19T12:06:52;5.95;;;2.42;;
37495;SDS011;23346;52.088;4.746;2022-08-19T12:09:18;8.73;;;2.85;;
37495;SDS011;23346;52.088;4.746;2022-08-19T12:11:44;8.45;;;2.70;;
37495;SDS011;23346;52.088;4.746;2022-08-19T12:14:11;5.25;;;2.17;;
37495;SDS011;23346;52.088;4.746;2022-08-19T12:16:39;4.80;;;1.85;;
37495;SDS011;23346;52.088;4.746;2022-08-19T12:19:06;8.90;;;1.70;;
37495;SDS011;23346;52.088;4.746;2022-08-19T12:21:33;7.55;;;1.92;;
37495;SDS011;23346;52.088;4.746;2022-08-19T12:24:00;7.57;;;2.20;;
37495;SDS011;23346;52.088;4.746;2022-08-19T12:26:27;4.40;;;2.10;;
37495;SDS011;23346;52.088;4.746;2022-08-19T12:28:53;4.43;;;1.45;;
37495;SDS011;23346;52.088;4.746;2022-08-19T12:31:19;4.05;;;1.65;;
37495;SDS011;23346;52.088;4.746;2022-08-19T12:33:45;3.33;;;1.42;;
37495;SDS011;23346;52.088;4.746;2022-08-19T12:36:12;3.58;;;1.20;;
37495;SDS011;23346;52.088;4.746;2022-08-19T12:38:39;6.85;;;1.80;;
37495;SDS011;23346;52.088;4.746;2022-08-19T12:41:05;3.83;;;1.58;;
37495;SDS011;23346;52.088;4.746;2022-08-19T12:43:33;3.67;;;1.58;;
37495;SDS011;23346;52.088;4.746;2022-08-19T12:45:59;5.82;;;1.70;;
37495;SDS011;23346;52.088;4.746;2022-08-19T12:48:32;3.55;;;1.95;;
37495;SDS011;23346;52.088;4.746;2022-08-19T12:50:58;3.08;;;1.60;;
37495;SDS011;23346;52.088;4.746;2022-08-19T12:53:24;3.22;;;1.60;;
37495;SDS011;23346;52.088;4.746;2022-08-19T12:55:59;5.65;;;2.28;;
37495;SDS011;23346;52.088;4.746;2022-08-19T12:58:26;4.00;;;1.55;;
37495;SDS011;23346;52.088;4.746;2022-08-19T13:00:53;3.90;;;1.80;;
37495;SDS011;23346;52.088;4.746;2022-08-19T13:03:20;2.13;;;1.60;;
37495;SDS011;23346;52.088;4.746;2022-08-19T13:05:50;3.78;;;1.50;;
37495;SDS011;23346;52.088;4.746;2022-08-19T13:08:16;5.95;;;1.52;;
37495;SDS011;23346;52.088;4.746;2022-08-19T13:10:42;5.20;;;1.40;;
37495;SDS011;23346;52.088;4.746;2022-08-19T13:13:08;4.57;;;1.48;;
37495;SDS011;23346;52.088;4.746;2022-08-19T13:15:35;2.17;;;1.20;;
37495;SDS011;23346;52.088;4.746;2022-08-19T13:18:02;3.58;;;1.30;;
37495;SDS011;23346;52.088;4.746;2022-08-19T13:20:28;2.63;;;1.15;;
37495;SDS011;23346;52.088;4.746;2022-08-19T13:22:54;3.47;;;1.30;;
37495;SDS011;23346;52.088;4.746;2022-08-19T13:25:22;2.08;;;1.20;;
37495;SDS011;23346;52.088;4.746;2022-08-19T13:27:48;3.25;;;1.10;;
37495;SDS011;23346;52.088;4.746;2022-08-19T13:30:16;3.22;;;1.27;;
37495;SDS011;23346;52.088;4.746;2022-08-19T13:33:01;2.13;;;1.27;;
37495;SDS011;23346;52.088;4.746;2022-08-19T13:35:58;3.03;;;1.25;;
37495;SDS011;23346;52.088;4.746;2022-08-19T13:38:23;3.55;;;1.25;;
37495;SDS011;23346;52.088;4.746;2022-08-19T13:40:50;3.20;;;1.23;;
37495;SDS011;23346;52.088;4.746;2022-08-19T13:43:17;2.13;;;1.17;;
37495;SDS011;23346;52.088;4.746;2022-08-19T13:45:44;2.13;;;1.30;;
37495;SDS011;23346;52.088;4.746;2022-08-19T13:48:10;2.55;;;1.05;;
37495;SDS011;23346;52.088;4.746;2022-08-19T13:50:40;3.85;;;1.52;;
37495;SDS011;23346;52.088;4.746;2022-08-19T13:53:07;1.52;;;1.00;;
37495;SDS011;23346;52.088;4.746;2022-08-19T13:55:33;2.78;;;1.20;;
37495;SDS011;23346;52.088;4.746;2022-08-19T13:58:01;3.88;;;1.48;;
37495;SDS011;23346;52.088;4.746;2022-08-19T14:00:28;2.28;;;1.40;;
37495;SDS011;23346;52.088;4.746;2022-08-19T14:02:55;3.92;;;1.67;;
37495;SDS011;23346;52.088;4.746;2022-08-19T14:05:22;2.22;;;1.20;;
37495;SDS011;23346;52.088;4.746;2022-08-19T14:07:49;4.65;;;1.20;;
37495;SDS011;23346;52.088;4.746;2022-08-19T14:10:16;3.92;;;1.38;;
37495;SDS011;23346;52.088;4.746;2022-08-19T14:12:43;3.90;;;1.30;;
37495;SDS011;23346;52.088;4.746;2022-08-19T14:15:10;6.30;;;1.88;;
37495;SDS011;23346;52.088;4.746;2022-08-19T14:17:37;4.28;;;1.70;;
37495;SDS011;23346;52.088;4.746;2022-08-19T14:20:04;4.13;;;1.75;;
37495;SDS011;23346;52.088;4.746;2022-08-19T14:22:43;6.38;;;1.75;;
37495;SDS011;23346;52.088;4.746;2022-08-19T14:25:11;6.05;;;1.63;;
37495;SDS011;23346;52.088;4.746;2022-08-19T14:27:37;4.75;;;1.50;;
37495;SDS011;23346;52.088;4.746;2022-08-19T14:30:05;3.83;;;1.20;;
37495;SDS011;23346;52.088;4.746;2022-08-19T14:35:47;3.13;;;1.63;;